Time;durP1;ratioP1;P1;durP2;ratioP2;P2;SDS_P1;SDS_P2;PMS_P1;PMS_P2;Temp;Humidity;BMP_temperature;BMP_pressure;BME280_temperature;BME280_humidity;BME280_pressure;Samples;Min_cycle;Max_cycle;Signal;HPM_P1;HPM_P2
2023/04/14 00:02:14;;;;;;;9.88;3.22;;;4.30;90.30;;;;;;5072270;28;20339;-46
2023/04/14 00:04:41;;;;;;;8.43;3.42;;;4.30;90.30;;;;;;5077923;28;20016;-44
2023/04/14 00:07:07;;;;;;;6.97;2.80;;;4.30;90.40;;;;;;5086898;28;20103;-43
2023/04/14 00:09:33;;;;;;;8.57;3.15;;;4.20;90.50;;;;;;5086871;28;20158;-43
2023/04/14 00:12:00;;;;;;;12.32;4.03;;;4.30;90.40;;;;;;5084019;28;20040;-42
2023/04/14 00:14:27;;;;;;;11.52;3.95;;;4.20;90.50;;;;;;5076283;28;20086;-43
2023/04/14 00:16:53;;;;;;;10.32;3.35;;;4.20;90.50;;;;;;5072408;28;20115;-43
2023/04/14 00:19:20;;;;;;;9.68;3.22;;;4.20;90.30;;;;;;5058437;28;20020;-47
2023/04/14 00:21:47;;;;;;;11.73;4.68;;;4.20;90.20;;;;;;5068033;28;20111;-44
2023/04/14 00:24:14;;;;;;;12.80;4.25;;;4.10;90.10;;;;;;5085993;28;20030;-42
2023/04/14 00:26:41;;;;;;;11.77;3.72;;;4.10;90.10;;;;;;5083118;28;20043;-42
2023/04/14 00:29:10;;;;;;;9.93;3.45;;;4.10;90.10;;;;;;5086531;28;20025;-43
2023/04/14 00:31:36;;;;;;;11.48;3.92;;;4.10;90.10;;;;;;5076337;28;20039;-42
2023/04/14 00:34:03;;;;;;;10.45;3.83;;;4.00;90.50;;;;;;5076845;28;20028;-45
2023/04/14 00:36:31;;;;;;;10.45;3.63;;;4.10;90.70;;;;;;5079247;28;20024;-43
2023/04/14 00:39:01;;;;;;;9.45;3.60;;;4.10;90.70;;;;;;5075276;28;20422;-42
2023/04/14 00:41:35;;;;;;;9.30;4.15;;;4.00;90.70;;;;;;5087139;28;20040;-45
2023/04/14 00:44:01;;;;;;;10.10;3.83;;;4.10;90.70;;;;;;5086544;28;20060;-44
2023/04/14 00:46:31;;;;;;;8.88;4.35;;;4.10;90.90;;;;;;5061051;28;20032;-43
2023/04/14 00:49:02;;;;;;;;;;;4.00;90.90;;;;;;5086726;28;20020;-41
2023/04/14 00:51:29;;;;;;;11.18;4.75;;;4.10;90.90;;;;;;5086037;28;20261;-43
2023/04/14 00:53:55;;;;;;;10.35;3.92;;;4.10;90.80;;;;;;5090694;28;20059;-43
2023/04/14 00:56:23;;;;;;;9.70;4.55;;;4.10;90.90;;;;;;5082330;28;20075;-44
2023/04/14 00:58:51;;;;;;;13.90;5.07;;;4.10;91.10;;;;;;5077027;28;20410;-42
2023/04/14 01:01:19;;;;;;;10.48;5.30;;;4.10;91.20;;;;;;5057663;28;20055;-44
2023/04/14 01:03:46;;;;;;;15.55;6.13;;;4.10;91.20;;;;;;5076500;28;20025;-42
2023/04/14 01:06:17;;;;;;;10.23;5.53;;;4.10;91.10;;;;;;5074878;28;20021;-42
2023/04/14 01:08:44;;;;;;;12.43;7.13;;;4.10;91.00;;;;;;5077643;28;20060;-45
2023/04/14 01:11:47;;;;;;;12.98;6.13;;;4.20;91.10;;;;;;5082737;28;20033;-42
2023/04/14 01:14:42;;;;;;;14.27;7.05;;;4.20;91.20;;;;;;5059999;28;20044;-45
2023/04/14 01:17:22;;;;;;;14.90;8.38;;;4.20;91.30;;;;;;5085655;28;20035;-43
2023/04/14 01:20:07;;;;;;;12.82;8.30;;;4.30;91.50;;;;;;5077573;28;20025;-43
2023/04/14 01:22:46;;;;;;;11.77;7.78;;;4.30;91.60;;;;;;5087880;28;20031;-43
2023/04/14 01:25:54;;;;;;;10.93;7.45;;;4.40;91.70;;;;;;5088557;28;20117;-43
2023/04/14 01:28:57;;;;;;;11.27;8.10;;;4.40;91.60;;;;;;5091176;28;20046;-44
2023/04/14 01:31:51;;;;;;;16.27;9.20;;;4.40;91.50;;;;;;5083417;28;20337;-44
2023/04/14 01:34:56;;;;;;;13.93;9.43;;;4.40;91.40;;;;;;5086850;28;20028;-47
2023/04/14 01:37:36;;;;;;;11.00;8.98;;;4.30;91.30;;;;;;5068866;28;20043;-41
2023/04/14 01:40:10;;;;;;;19.05;10.30;;;4.20;91.10;;;;;;5087677;28;20024;-43
2023/04/14 01:42:41;;;;;;;13.23;9.57;;;4.20;91.20;;;;;;5089054;28;20372;-46
2023/04/14 01:45:22;;;;;;;15.32;10.25;;;4.20;91.30;;;;;;5091250;28;20513;-43
2023/04/14 01:47:51;;;;;;;16.48;10.65;;;4.20;91.30;;;;;;5075062;28;20044;-42
2023/04/14 01:50:20;;;;;;;16.15;11.55;;;4.10;91.20;;;;;;5075305;28;20040;-42
2023/04/14 01:52:53;;;;;;;14.52;10.75;;;4.10;91.60;;;;;;5094981;28;20028;-43
2023/04/14 01:55:22;;;;;;;13.18;9.63;;;4.20;91.70;;;;;;5089800;28;20040;-42
2023/04/14 01:57:52;;;;;;;15.23;10.10;;;4.20;91.80;;;;;;5080071;28;20060;-43
2023/04/14 02:00:19;;;;;;;;;;;4.20;91.60;;;;;;5078243;28;20032;-44
2023/04/14 02:02:49;;;;;;;13.20;10.50;;;4.20;91.70;;;;;;5068719;28;20003;-43
2023/04/14 02:05:21;;;;;;;16.15;10.52;;;4.20;91.80;;;;;;5077928;28;20017;-42
2023/04/14 02:07:48;;;;;;;14.43;10.85;;;4.10;91.70;;;;;;5082288;28;20027;-43
2023/04/14 02:10:19;;;;;;;16.13;10.90;;;4.10;91.70;;;;;;5071262;28;20047;-42
2023/04/14 02:12:50;;;;;;;15.45;11.63;;;4.00;91.60;;;;;;5087279;28;20048;-42
2023/04/14 02:15:17;;;;;;;17.77;11.90;;;4.00;91.50;;;;;;5092934;28;20023;-47
2023/04/14 02:17:49;;;;;;;17.38;11.95;;;3.90;91.40;;;;;;5074886;28;20086;-42
2023/04/14 02:20:22;;;;;;;15.07;11.45;;;3.90;91.50;;;;;;5072487;28;20480;-44
2023/04/14 02:22:49;;;;;;;14.48;11.32;;;3.90;91.60;;;;;;5076638;28;20323;-43
2023/04/14 02:25:16;;;;;;;15.85;11.68;;;3.90;91.60;;;;;;5077280;28;20028;-42
2023/04/14 02:27:55;;;;;;;19.40;13.77;;;3.90;91.60;;;;;;5069239;28;20057;-43
2023/04/14 02:30:31;;;;;;;18.67;12.30;;;3.90;91.50;;;;;;5088043;28;20042;-45
2023/04/14 02:33:06;;;;;;;16.73;11.85;;;3.90;91.50;;;;;;5076643;28;20082;-45
2023/04/14 02:35:43;;;;;;;15.82;12.35;;;3.80;91.50;;;;;;5078946;28;20469;-43
2023/04/14 02:38:38;;;;;;;18.05;12.25;;;3.80;91.50;;;;;;5089095;28;20028;-44
2023/04/14 02:41:13;;;;;;;18.90;12.85;;;3.80;91.40;;;;;;5076953;28;20555;-42
2023/04/14 02:43:53;;;;;;;16.48;13.00;;;3.80;91.40;;;;;;5078202;28;20020;-42
2023/04/14 02:46:24;;;;;;;15.65;12.95;;;3.70;91.50;;;;;;5083252;28;20465;-46
2023/04/14 02:48:55;;;;;;;17.90;14.20;;;3.70;91.50;;;;;;5078698;28;20036;-43
2023/04/14 02:51:24;;;;;;;19.75;14.10;;;3.70;91.50;;;;;;5078480;28;20423;-43
2023/04/14 02:53:52;;;;;;;24.60;14.60;;;3.70;91.50;;;;;;5076398;28;20107;-44
2023/04/14 02:56:21;;;;;;;18.55;13.90;;;3.70;91.70;;;;;;5076106;28;20123;-43
2023/04/14 02:58:48;;;;;;;20.75;15.10;;;3.70;91.70;;;;;;5079396;28;20024;-44
2023/04/14 03:01:19;;;;;;;20.75;14.18;;;3.70;91.70;;;;;;5075449;28;20021;-42
2023/04/14 03:03:47;;;;;;;18.30;13.35;;;3.70;91.90;;;;;;5085197;28;20016;-44
2023/04/14 03:06:17;;;;;;;17.80;14.15;;;3.70;91.80;;;;;;5080608;28;20442;-44
2023/04/14 03:08:44;;;;;;;22.95;15.18;;;3.70;91.70;;;;;;5081577;28;20429;-46
2023/04/14 03:11:15;;;;;;;22.75;15.77;;;3.70;91.80;;;;;;5079801;28;20478;-46
2023/04/14 03:13:44;;;;;;;20.92;17.05;;;3.80;92.00;;;;;;5089742;28;20036;-46
2023/04/14 03:16:12;;;;;;;19.85;15.63;;;3.80;92.10;;;;;;5078495;28;20024;-42
2023/04/14 03:18:39;;;;;;;24.67;17.45;;;3.90;92.40;;;;;;5077607;28;20035;-44
2023/04/14 03:21:09;;;;;;;22.90;16.98;;;3.90;92.60;;;;;;5091331;28;20020;-43
2023/04/14 03:23:36;;;;;;;27.88;18.98;;;4.00;92.70;;;;;;5091128;28;20023;-47
2023/04/14 03:26:04;;;;;;;22.63;17.83;;;4.10;92.90;;;;;;5083986;28;20020;-42
2023/04/14 03:28:33;;;;;;;25.58;18.33;;;4.10;93.00;;;;;;5081758;28;20260;-43
2023/04/14 03:31:02;;;;;;;20.90;16.88;;;4.20;93.00;;;;;;5072330;28;20108;-44
2023/04/14 03:33:31;;;;;;;22.97;18.80;;;4.10;92.80;;;;;;5074234;28;20033;-43
2023/04/14 03:35:58;;;;;;;25.40;18.88;;;4.10;93.00;;;;;;5073955;28;20278;-45
2023/04/14 03:38:28;;;;;;;22.20;18.45;;;4.10;93.10;;;;;;5076241;28;20032;-44
2023/04/14 03:40:58;;;;;;;23.50;18.00;;;4.20;93.30;;;;;;5077285;28;20518;-45
2023/04/14 03:43:30;;;;;;;25.58;20.67;;;4.30;93.30;;;;;;5085022;28;20040;-46
2023/04/14 03:45:57;;;;;;;29.92;21.67;;;4.40;93.50;;;;;;5075017;28;20044;-44
2023/04/14 03:48:28;;;;;;;28.60;21.60;;;4.50;93.50;;;;;;5078389;28;20103;-45
2023/04/14 03:50:57;;;;;;;31.05;22.00;;;4.50;93.60;;;;;;5082135;28;20031;-44
2023/04/14 03:53:25;;;;;;;25.77;20.80;;;4.60;93.60;;;;;;5056153;28;20029;-45
2023/04/14 03:55:55;;;;;;;22.77;19.92;;;4.60;93.50;;;;;;5078046;28;20538;-43
2023/04/14 03:58:25;;;;;;;23.52;18.65;;;4.60;93.40;;;;;;5079364;28;20048;-45
2023/04/14 04:00:54;;;;;;;25.27;18.80;;;4.60;93.40;;;;;;5082587;28;20036;-44
2023/04/14 04:03:24;;;;;;;24.00;18.92;;;4.50;93.40;;;;;;5083960;28;20771;-47
2023/04/14 04:05:53;;;;;;;24.25;20.13;;;4.50;93.30;;;;;;5085394;28;20215;-43
2023/04/14 04:08:24;;;;;;;25.52;21.33;;;4.50;93.20;;;;;;5086195;28;20024;-45
2023/04/14 04:10:53;;;;;;;28.33;21.13;;;4.40;93.30;;;;;;5085501;28;20166;-46
2023/04/14 04:13:21;;;;;;;21.85;18.80;;;4.50;93.30;;;;;;5087189;28;20052;-48
2023/04/14 04:15:50;;;;;;;22.60;19.50;;;4.40;93.10;;;;;;5077208;28;20033;-44
2023/04/14 04:18:18;;;;;;;21.30;17.13;;;4.40;93.10;;;;;;5085695;28;20065;-44
2023/04/14 04:20:45;;;;;;;21.90;17.15;;;4.30;93.10;;;;;;5094049;28;20055;-45
2023/04/14 04:23:12;;;;;;;23.52;17.73;;;4.30;93.10;;;;;;5076811;28;20028;-46
2023/04/14 04:25:43;;;;;;;23.08;17.27;;;4.30;93.10;;;;;;5090343;28;21263;-44
2023/04/14 04:28:09;;;;;;;20.02;16.65;;;4.20;93.00;;;;;;5067446;28;20020;-47
2023/04/14 04:30:39;;;;;;;19.38;16.42;;;4.20;93.00;;;;;;5074028;28;20398;-47
2023/04/14 04:33:06;;;;;;;19.05;15.63;;;4.10;92.90;;;;;;5089677;28;20024;-46
2023/04/14 04:35:34;;;;;;;19.30;16.17;;;4.00;92.90;;;;;;5088955;28;20464;-48
2023/04/14 04:38:01;;;;;;;17.20;15.40;;;3.90;92.70;;;;;;5089438;28;20047;-44
2023/04/14 04:40:35;;;;;;;18.23;14.82;;;3.90;92.80;;;;;;5092936;28;20107;-45
2023/04/14 04:43:02;;;;;;;20.17;15.73;;;3.90;92.70;;;;;;5089407;28;20052;-45
2023/04/14 04:45:58;;;;;;;21.23;15.93;;;3.90;92.80;;;;;;5090315;28;20028;-45
2023/04/14 04:48:27;;;;;;;21.17;15.55;;;3.90;92.90;;;;;;5087770;28;20032;-44
2023/04/14 04:50:54;;;;;;;18.83;16.42;;;3.80;92.80;;;;;;5077250;28;20103;-44
2023/04/14 04:53:21;;;;;;;18.50;14.55;;;3.80;92.80;;;;;;5088508;28;20047;-46
2023/04/14 04:55:47;;;;;;;19.13;15.52;;;3.80;92.80;;;;;;5086348;28;20033;-44
2023/04/14 04:58:14;;;;;;;19.02;14.90;;;3.80;92.70;;;;;;5088834;28;20033;-46
2023/04/14 05:00:43;;;;;;;21.45;15.50;;;3.80;92.70;;;;;;5091232;28;20418;-44
2023/04/14 05:03:11;;;;;;;20.67;16.88;;;3.80;92.60;;;;;;5093874;28;20060;-44
2023/04/14 05:05:36;;;;;;;20.50;15.55;;;3.70;92.60;;;;;;5067703;28;20394;-45
2023/04/14 05:08:03;;;;;;;23.90;18.50;;;3.70;92.70;;;;;;5065673;28;20118;-46
2023/04/14 05:10:29;;;;;;;25.52;18.88;;;3.80;92.90;;;;;;5077370;28;20033;-46
2023/04/14 05:12:57;;;;;;;25.15;18.42;;;3.90;93.00;;;;;;5069804;28;20051;-44
2023/04/14 05:15:24;;;;;;;21.05;17.02;;;3.90;93.00;;;;;;5080760;28;20043;-45
2023/04/14 05:17:51;;;;;;;25.35;19.45;;;4.00;93.10;;;;;;5065159;28;20127;-51
2023/04/14 05:20:17;;;;;;;22.25;19.85;;;4.20;93.30;;;;;;5090831;28;20024;-48
2023/04/14 05:22:47;;;;;;;25.60;18.85;;;4.30;93.20;;;;;;5092751;28;20024;-45
2023/04/14 05:25:14;;;;;;;24.40;19.02;;;4.40;93.20;;;;;;5062590;28;20020;-45
2023/04/14 05:27:43;;;;;;;27.45;21.30;;;4.50;93.10;;;;;;5089255;28;20032;-48
2023/04/14 05:30:11;;;;;;;25.65;20.23;;;4.60;93.30;;;;;;5063918;28;20452;-46
2023/04/14 05:32:40;;;;;;;28.33;20.55;;;4.80;93.30;;;;;;5078905;28;20127;-45
2023/04/14 05:35:07;;;;;;;25.38;21.67;;;4.80;93.20;;;;;;5085583;28;20028;-49
2023/04/14 05:37:33;;;;;;;27.35;22.15;;;4.90;93.40;;;;;;5063079;28;20032;-46
2023/04/14 05:39:59;;;;;;;26.25;22.15;;;5.00;93.40;;;;;;5080257;28;20100;-44
2023/04/14 05:42:26;;;;;;;26.05;19.98;;;5.10;93.40;;;;;;5083186;28;20066;-45
2023/04/14 05:44:53;;;;;;;24.73;19.75;;;5.20;93.30;;;;;;5092726;28;20036;-45
2023/04/14 05:47:20;;;;;;;21.33;19.13;;;5.30;93.20;;;;;;5084998;28;20024;-45
2023/04/14 05:49:47;;;;;;;28.67;21.90;;;5.40;93.20;;;;;;5074531;28;20107;-46
2023/04/14 05:52:15;;;;;;;23.50;19.77;;;5.40;92.90;;;;;;5062685;28;20028;-46
2023/04/14 05:54:42;;;;;;;27.27;20.33;;;5.50;92.90;;;;;;5090703;28;20036;-48
2023/04/14 05:57:09;;;;;;;23.20;19.92;;;5.60;92.80;;;;;;5072569;28;20112;-46
2023/04/14 05:59:36;;;;;;;21.92;19.60;;;5.70;92.80;;;;;;5073862;28;20073;-48
2023/04/14 06:02:05;;;;;;;21.25;18.35;;;5.80;92.50;;;;;;5087851;28;20020;-47
2023/04/14 06:04:32;;;;;;;26.35;19.30;;;5.80;92.40;;;;;;5086065;28;20029;-47
2023/04/14 06:07:01;;;;;;;19.48;17.38;;;6.00;92.30;;;;;;5088692;28;20032;-46
2023/04/14 06:09:28;;;;;;;21.00;17.88;;;6.10;92.20;;;;;;5088632;28;20345;-46
2023/04/14 06:11:54;;;;;;;18.27;16.38;;;6.30;92.20;;;;;;5087226;28;20046;-49
2023/04/14 06:14:20;;;;;;;20.50;18.30;;;6.40;91.80;;;;;;5089934;28;20401;-45
2023/04/14 06:16:49;;;;;;;19.63;16.38;;;6.60;91.70;;;;;;5070365;28;20080;-48
2023/04/14 06:19:17;;;;;;;20.48;14.98;;;6.70;91.50;;;;;;5090128;28;20104;-45
2023/04/14 06:21:47;;;;;;;18.35;15.20;;;6.80;91.20;;;;;;5073692;28;20059;-46
2023/04/14 06:24:14;;;;;;;;;;;6.90;90.90;;;;;;5086724;28;20065;-46
2023/04/14 06:26:41;;;;;;;15.88;13.77;;;7.00;90.50;;;;;;5070434;28;19908;-47
2023/04/14 06:29:08;;;;;;;20.40;14.07;;;7.10;90.10;;;;;;5088976;28;20039;-47
2023/04/14 06:31:35;;;;;;;14.93;13.48;;;7.20;89.80;;;;;;5079385;28;20094;-45
2023/04/14 06:34:00;;;;;;;16.63;14.15;;;7.30;89.70;;;;;;5079100;28;20039;-46
2023/04/14 06:36:28;;;;;;;15.57;13.80;;;7.50;89.50;;;;;;5058198;28;20357;-45
2023/04/14 06:38:56;;;;;;;16.38;12.70;;;7.70;89.10;;;;;;5063122;28;20024;-45
2023/04/14 06:41:23;;;;;;;14.50;11.25;;;7.90;88.70;;;;;;5081966;28;20128;-45
2023/04/14 06:43:50;;;;;;;13.48;11.88;;;7.90;88.50;;;;;;5055765;28;20032;-46
2023/04/14 06:46:16;;;;;;;15.90;12.60;;;8.10;88.30;;;;;;5056136;28;20025;-45
2023/04/14 06:48:43;;;;;;;12.82;10.35;;;8.20;87.70;;;;;;5063633;28;20028;-44
2023/04/14 06:51:11;;;;;;;14.52;10.38;;;8.40;87.90;;;;;;5079975;28;20032;-45
2023/04/14 06:53:37;;;;;;;12.75;10.80;;;8.40;87.60;;;;;;5087385;28;20031;-47
2023/04/14 06:56:08;;;;;;;14.20;9.90;;;8.60;87.30;;;;;;5076946;28;20029;-46
2023/04/14 06:58:37;;;;;;;13.48;10.43;;;8.70;87.20;;;;;;5089421;28;20108;-46
2023/04/14 07:01:04;;;;;;;12.52;9.00;;;8.80;86.60;;;;;;5089544;28;20032;-44
2023/04/14 07:03:30;;;;;;;12.98;9.88;;;8.80;85.80;;;;;;5085041;28;20485;-44
2023/04/14 07:06:09;;;;;;;12.13;9.52;;;8.90;85.70;;;;;;5061924;28;20472;-44
2023/04/14 07:08:39;;;;;;;12.32;9.15;;;8.90;84.70;;;;;;5093040;28;20353;-45
2023/04/14 07:11:09;;;;;;;12.18;9.15;;;8.90;85.00;;;;;;5076331;28;20108;-44
2023/04/14 07:13:36;;;;;;;13.15;8.40;;;8.90;84.80;;;;;;5092534;28;20127;-49
2023/04/14 07:16:05;;;;;;;10.75;9.40;;;9.00;84.70;;;;;;5061607;28;20202;-45
2023/04/14 07:18:34;;;;;;;13.90;9.20;;;9.20;84.50;;;;;;5088794;28;20044;-46
2023/04/14 07:21:02;;;;;;;11.70;8.02;;;9.20;84.30;;;;;;5088734;28;20074;-45
2023/04/14 07:23:29;;;;;;;9.88;8.05;;;9.40;84.60;;;;;;5074829;28;20040;-49
2023/04/14 07:25:57;;;;;;;12.50;8.38;;;9.60;83.60;;;;;;5074297;28;20021;-48
2023/04/14 07:28:26;;;;;;;11.75;8.27;;;9.90;83.50;;;;;;5086055;28;20028;-46
2023/04/14 07:30:54;;;;;;;14.85;9.30;;;10.10;82.70;;;;;;5066085;28;20032;-46
2023/04/14 07:33:25;;;;;;;13.02;9.68;;;10.40;82.10;;;;;;5065129;28;20036;-45
2023/04/14 07:35:52;;;;;;;11.43;7.63;;;10.80;81.20;;;;;;5071542;28;20365;-47
2023/04/14 07:38:19;;;;;;;10.18;6.97;;;10.90;79.30;;;;;;5074597;28;20150;-46
2023/04/14 07:40:46;;;;;;;10.13;8.10;;;11.40;79.40;;;;;;5063266;28;20035;-48
2023/04/14 07:43:13;;;;;;;9.75;7.63;;;11.70;78.00;;;;;;5079823;28;20091;-47
2023/04/14 07:45:41;;;;;;;8.60;6.55;;;12.00;77.20;;;;;;5066718;28;20016;-45
2023/04/14 07:48:08;;;;;;;11.98;6.63;;;12.40;74.50;;;;;;5084767;28;20110;-48
2023/04/14 07:50:33;;;;;;;10.20;6.75;;;12.80;74.70;;;;;;5080285;28;20035;-52
2023/04/14 07:53:00;;;;;;;11.85;5.68;;;13.10;72.70;;;;;;5056963;28;20032;-48
2023/04/14 07:55:27;;;;;;;10.23;6.25;;;13.50;71.30;;;;;;5061460;28;20035;-47
2023/04/14 07:57:55;;;;;;;9.30;5.75;;;13.90;69.90;;;;;;5087505;28;20020;-49
2023/04/14 08:00:22;;;;;;;13.05;6.55;;;14.10;68.80;;;;;;5080430;28;20341;-49
2023/04/14 08:02:49;;;;;;;11.65;6.60;;;14.30;67.00;;;;;;5059799;28;20020;-47
2023/04/14 08:05:18;;;;;;;8.93;5.72;;;14.60;65.60;;;;;;5071800;28;20025;-47
2023/04/14 08:07:45;;;;;;;9.77;5.15;;;14.80;65.30;;;;;;5071153;28;20025;-48
2023/04/14 08:10:10;;;;;;;10.43;5.93;;;15.10;65.20;;;;;;5072530;28;20028;-46
2023/04/14 08:12:40;;;;;;;9.05;4.80;;;15.50;65.70;;;;;;5085870;28;20036;-49
2023/04/14 08:15:08;;;;;;;10.07;5.60;;;15.70;63.30;;;;;;5092780;28;20036;-48
2023/04/14 08:17:37;;;;;;;11.10;5.30;;;15.80;63.00;;;;;;5083203;28;20032;-50
2023/04/14 08:20:03;;;;;;;8.87;5.03;;;16.20;61.40;;;;;;5086751;28;20040;-50
2023/04/14 08:22:30;;;;;;;7.22;3.70;;;16.30;61.80;;;;;;5051250;28;20275;-50
2023/04/14 08:24:57;;;;;;;8.45;3.90;;;16.40;61.20;;;;;;5085692;28;20043;-51
2023/04/14 08:27:24;;;;;;;8.07;3.50;;;16.50;60.20;;;;;;5084649;28;20028;-48
2023/04/14 08:29:51;;;;;;;10.25;3.55;;;16.80;57.60;;;;;;5080948;28;20102;-50
2023/04/14 08:32:21;;;;;;;9.43;5.25;;;16.90;55.90;;;;;;5071552;28;20020;-46
2023/04/14 08:34:47;;;;;;;9.45;3.60;;;16.90;55.60;;;;;;5065350;28;20035;-50
2023/04/14 08:37:13;;;;;;;7.18;2.65;;;16.80;53.00;;;;;;5083498;28;20135;-46
2023/04/14 08:39:40;;;;;;;7.68;3.42;;;16.80;52.30;;;;;;5080197;28;20098;-46
2023/04/14 08:42:10;;;;;;;7.72;3.83;;;16.70;53.00;;;;;;5080791;28;20140;-47
2023/04/14 08:44:37;;;;;;;13.88;5.70;;;16.80;54.20;;;;;;5074235;28;20028;-49
2023/04/14 08:47:05;;;;;;;6.55;3.90;;;16.60;52.80;;;;;;5087318;28;20449;-47
2023/04/14 08:49:50;;;;;;;13.98;7.95;;;16.60;53.20;;;;;;5087287;28;20031;-50
2023/04/14 08:52:20;;;;;;;11.77;5.38;;;16.90;56.00;;;;;;5084229;28;20028;-48
2023/04/14 08:54:49;;;;;;;11.63;6.20;;;17.00;52.30;;;;;;5080415;28;20429;-48
2023/04/14 08:57:21;;;;;;;8.65;5.72;;;16.90;53.10;;;;;;5065140;28;20123;-48
2023/04/14 08:59:48;;;;;;;13.45;5.93;;;16.80;54.30;;;;;;5087538;28;20040;-47
2023/04/14 09:02:17;;;;;;;10.57;6.32;;;16.70;54.50;;;;;;5087976;28;20174;-50
2023/04/14 09:04:48;;;;;;;12.20;6.35;;;16.80;54.40;;;;;;5091738;28;20024;-46
2023/04/14 09:07:15;;;;;;;12.70;6.35;;;16.70;53.70;;;;;;5092460;28;20365;-46
2023/04/14 09:09:49;;;;;;;7.43;5.30;;;16.80;55.00;;;;;;5078853;28;20043;-48
2023/04/14 09:12:16;;;;;;;10.10;5.60;;;17.00;54.60;;;;;;5060380;28;20115;-47
2023/04/14 09:14:45;;;;;;;8.73;5.10;;;16.90;52.10;;;;;;5082754;28;20070;-51
2023/04/14 09:17:12;;;;;;;8.50;5.70;;;16.90;55.40;;;;;;5089854;28;20028;-46
2023/04/14 09:19:41;;;;;;;13.80;6.57;;;16.80;53.70;;;;;;5081056;28;20564;-47
2023/04/14 09:22:09;;;;;;;8.02;4.43;;;16.70;53.90;;;;;;5088942;28;20028;-48
2023/04/14 09:24:36;;;;;;;9.75;5.03;;;17.00;53.20;;;;;;5073377;28;20149;-52
2023/04/14 09:27:04;;;;;;;8.85;5.20;;;16.90;53.80;;;;;;5088329;28;20031;-47
2023/04/14 09:29:32;;;;;;;8.45;4.20;;;17.00;54.20;;;;;;5081586;28;20358;-51
2023/04/14 09:31:59;;;;;;;7.85;4.30;;;17.20;54.50;;;;;;5079746;28;20016;-47
2023/04/14 09:34:26;;;;;;;7.38;3.40;;;17.20;53.10;;;;;;5070509;28;20020;-47
2023/04/14 09:37:05;;;;;;;6.78;3.30;;;17.10;53.10;;;;;;5069558;28;20040;-48
2023/04/14 09:39:32;;;;;;;8.80;3.25;;;17.10;53.00;;;;;;5078745;28;20236;-46
2023/04/14 09:42:01;;;;;;;9.75;3.65;;;17.00;54.70;;;;;;5085990;28;20116;-49
2023/04/14 09:44:29;;;;;;;5.68;2.60;;;17.30;53.30;;;;;;5067943;28;20509;-47
2023/04/14 09:47:15;;;;;;;8.00;3.22;;;17.20;53.20;;;;;;5062756;28;20028;-47
2023/04/14 09:49:57;;;;;;;11.07;3.10;;;17.20;56.20;;;;;;5091935;28;20039;-49
2023/04/14 09:52:45;;;;;;;8.18;3.25;;;17.10;53.80;;;;;;5080915;28;20090;-49
2023/04/14 09:55:30;;;;;;;8.77;3.72;;;17.10;53.70;;;;;;5084819;28;20024;-49
2023/04/14 09:57:57;;;;;;;7.80;3.28;;;17.00;55.90;;;;;;5066441;28;20024;-47
2023/04/14 10:00:26;;;;;;;7.97;3.22;;;17.30;54.60;;;;;;5106203;28;20059;-47
2023/04/14 10:03:00;;;;;;;7.43;2.90;;;17.40;52.70;;;;;;5094257;28;20020;-52
2023/04/14 10:05:28;;;;;;;9.68;3.00;;;17.40;53.00;;;;;;5092000;28;20024;-47
2023/04/14 10:08:04;;;;;;;8.10;2.85;;;17.50;52.90;;;;;;5091834;28;20060;-47
2023/04/14 10:10:30;;;;;;;8.40;3.67;;;17.40;54.20;;;;;;5089270;28;20048;-49
2023/04/14 10:12:59;;;;;;;11.23;3.28;;;17.40;54.60;;;;;;5090964;28;20083;-47
2023/04/14 10:15:27;;;;;;;8.57;2.90;;;17.60;53.90;;;;;;5087180;28;20028;-49
2023/04/14 10:17:53;;;;;;;7.45;2.47;;;17.50;51.70;;;;;;5082028;28;20028;-48
2023/04/14 10:20:21;;;;;;;9.70;2.65;;;17.50;53.00;;;;;;5076242;28;20082;-47
2023/04/14 10:22:49;;;;;;;5.03;2.33;;;17.60;49.50;;;;;;5090255;28;20103;-48
2023/04/14 10:25:19;;;;;;;6.55;2.10;;;17.60;51.20;;;;;;5090776;28;20352;-46
2023/04/14 10:27:46;;;;;;;4.35;1.75;;;17.70;49.40;;;;;;5082166;28;20086;-47
2023/04/14 10:30:13;;;;;;;7.03;1.83;;;18.00;49.90;;;;;;5092612;28;20059;-48
2023/04/14 10:32:41;;;;;;;7.03;2.28;;;18.20;47.40;;;;;;5073242;28;20081;-49
2023/04/14 10:35:09;;;;;;;6.80;2.28;;;18.10;46.50;;;;;;5080163;28;20125;-47
2023/04/14 10:37:36;;;;;;;5.32;2.20;;;17.90;46.80;;;;;;5066726;28;20107;-48
2023/04/14 10:40:05;;;;;;;5.25;1.60;;;18.00;49.60;;;;;;5073956;28;20077;-49
2023/04/14 10:42:52;;;;;;;7.03;2.53;;;18.30;51.00;;;;;;5086080;28;20077;-47
2023/04/14 10:45:20;;;;;;;8.20;2.85;;;18.50;49.50;;;;;;5083141;28;20056;-46
2023/04/14 10:47:46;;;;;;;6.47;2.53;;;18.40;48.00;;;;;;5087284;28;20032;-49
2023/04/14 10:50:45;;;;;;;10.73;2.83;;;18.20;49.00;;;;;;5086010;28;20089;-48
2023/04/14 10:53:13;;;;;;;6.32;2.28;;;18.40;48.50;;;;;;5076780;28;20123;-51
2023/04/14 10:55:46;;;;;;;8.00;2.80;;;18.20;49.00;;;;;;5084977;28;20024;-49
2023/04/14 10:58:24;;;;;;;10.00;2.78;;;18.10;47.60;;;;;;5059876;28;20039;-46
2023/04/14 11:00:53;;;;;;;8.10;2.17;;;18.10;48.40;;;;;;5065869;28;20024;-50
2023/04/14 11:03:19;;;;;;;5.25;2.38;;;18.10;48.00;;;;;;5073337;28;20016;-48
2023/04/14 11:05:48;;;;;;;7.75;2.60;;;18.20;49.50;;;;;;5073860;28;20038;-49
2023/04/14 11:08:32;;;;;;;5.95;2.17;;;17.90;48.10;;;;;;5076490;28;20119;-46
2023/04/14 11:11:05;;;;;;;8.20;2.15;;;17.90;46.90;;;;;;5073390;28;20335;-46
2023/04/14 11:13:34;;;;;;;11.77;3.17;;;17.70;45.70;;;;;;5072013;28;20055;-48
2023/04/14 11:16:25;;;;;;;7.40;1.65;;;17.20;49.30;;;;;;5076329;28;20454;-49
2023/04/14 11:18:53;;;;;;;5.60;2.03;;;17.20;49.60;;;;;;5083890;28;20076;-47
2023/04/14 11:21:20;;;;;;;7.53;2.25;;;17.50;47.00;;;;;;5064006;28;20400;-46
2023/04/14 11:23:47;;;;;;;7.25;2.15;;;17.60;46.80;;;;;;5083787;28;20020;-48
2023/04/14 11:26:14;;;;;;;5.32;1.83;;;17.60;46.60;;;;;;5059591;28;20023;-47
2023/04/14 11:28:43;;;;;;;6.07;1.80;;;17.50;47.60;;;;;;5079441;28;20032;-53
2023/04/14 11:31:14;;;;;;;5.18;1.63;;;17.50;49.60;;;;;;5074337;28;20024;-47
2023/04/14 11:33:40;;;;;;;6.28;2.63;;;17.50;49.00;;;;;;5070594;28;20043;-46
2023/04/14 11:36:11;;;;;;;6.45;2.40;;;17.50;48.60;;;;;;5071950;28;20115;-46
2023/04/14 11:38:41;;;;;;;4.47;1.90;;;17.80;48.60;;;;;;5087273;28;20074;-47
2023/04/14 11:41:08;;;;;;;5.32;2.30;;;17.90;47.60;;;;;;5082926;28;20020;-47
2023/04/14 11:43:37;;;;;;;7.10;2.35;;;18.00;47.50;;;;;;5082457;28;20020;-46
2023/04/14 11:46:07;;;;;;;4.75;2.08;;;17.90;47.90;;;;;;5082311;28;20031;-47
2023/04/14 11:48:34;;;;;;;5.82;2.10;;;17.10;45.10;;;;;;5084762;28;20047;-52
2023/04/14 11:51:02;;;;;;;10.55;2.63;;;16.50;48.30;;;;;;5083302;28;20033;-46
2023/04/14 11:53:29;;;;;;;11.02;2.67;;;16.40;49.50;;;;;;5092680;28;20032;-47
2023/04/14 11:55:56;;;;;;;8.30;2.72;;;16.50;51.70;;;;;;5077544;28;20548;-47
2023/04/14 11:58:25;;;;;;;7.30;2.88;;;16.40;50.00;;;;;;5086005;28;20726;-49
2023/04/14 12:00:53;;;;;;;5.67;1.90;;;15.90;50.20;;;;;;5085093;28;20020;-47
2023/04/14 12:03:27;;;;;;;6.45;2.30;;;15.30;51.40;;;;;;5084344;28;20020;-47
2023/04/14 12:06:01;;;;;;;6.38;2.40;;;14.90;54.30;;;;;;5085069;28;20024;-46
2023/04/14 12:08:32;;;;;;;6.47;2.05;;;14.70;55.40;;;;;;5080467;28;20462;-50
2023/04/14 12:11:19;;;;;;;5.93;2.08;;;14.50;56.30;;;;;;5076915;28;20032;-46
2023/04/14 12:13:48;;;;;;;7.07;2.92;;;14.20;56.00;;;;;;5082612;28;20036;-47
2023/04/14 12:16:16;;;;;;;5.68;1.92;;;14.00;55.70;;;;;;5082162;28;20028;-47
2023/04/14 12:18:46;;;;;;;7.28;2.42;;;13.90;56.70;;;;;;5074850;28;20035;-47
2023/04/14 12:21:17;;;;;;;6.45;1.65;;;13.80;56.20;;;;;;5077505;28;20059;-47
2023/04/14 12:23:47;;;;;;;6.93;2.25;;;13.60;56.70;;;;;;5090545;28;20031;-51
2023/04/14 12:26:18;;;;;;;6.47;2.22;;;13.40;56.00;;;;;;5075753;28;20035;-47
2023/04/14 12:28:53;;;;;;;4.10;2.20;;;13.50;56.40;;;;;;5089247;28;20387;-50
2023/04/14 12:31:28;;;;;;;6.38;2.40;;;13.40;55.40;;;;;;5085398;28;20097;-47
2023/04/14 12:33:59;;;;;;;6.20;2.50;;;13.30;56.10;;;;;;5084848;28;20028;-50
2023/04/14 12:36:27;;;;;;;11.00;2.45;;;13.20;56.30;;;;;;5048953;28;20032;-47
2023/04/14 12:38:53;;;;;;;9.23;2.60;;;13.20;56.70;;;;;;5086578;28;20286;-49
2023/04/14 12:41:23;;;;;;;7.10;2.72;;;13.30;57.20;;;;;;5075223;28;20028;-47
2023/04/14 12:43:52;;;;;;;6.03;2.00;;;13.70;56.90;;;;;;5094270;28;20048;-48
2023/04/14 12:46:25;;;;;;;8.75;2.80;;;14.20;56.70;;;;;;5086560;28;20039;-50
2023/04/14 12:48:55;;;;;;;8.20;2.50;;;14.60;51.60;;;;;;5080396;28;20119;-47
2023/04/14 12:51:21;;;;;;;7.63;2.03;;;14.70;51.00;;;;;;5064931;28;20028;-50
2023/04/14 12:53:52;;;;;;;6.45;1.85;;;14.70;50.40;;;;;;5085064;28;20043;-47
2023/04/14 12:56:22;;;;;;;5.07;2.00;;;14.40;52.20;;;;;;5082056;28;20425;-47
2023/04/14 12:58:50;;;;;;;4.78;1.80;;;14.40;53.50;;;;;;5076604;28;20055;-50